Flight Track Log - Related Links

Times and Time Zones

All times are in EDT time to prevent confusion due to time zone crossing. See the CES5897 flight status page for this flight to view local times or setup timezone preferences in your user account.

Time Position Orientation Groundspeed Altitude Reporting Facility
EDT Latitude Longitude Course Direction KTS MPH feet Rate Location/Type
Fri 09:36:00 AM 26.5487 103.5476 21° North  Level Estimated
Fri 09:37:00 AM 26.6290 103.5824 21° North  Level Estimated
Fri 09:38:00 AM 26.7093 103.6172 21° North  Level Estimated
Fri 09:39:00 AM 26.7896 103.6521 21° North  Level Estimated
Fri 09:40:00 AM 26.8698 103.6871 21° North  Level Estimated
Fri 09:41:00 AM 26.9501 103.7221 21° North  Level Estimated
Fri 09:42:00 AM 27.0303 103.7571 21° North  Level Estimated
Fri 09:43:00 AM 27.1106 103.7922 21° North  Level Estimated
Fri 09:44:00 AM 27.1908 103.8274 21° North  Level Estimated
Fri 09:45:00 AM 27.2710 103.8626 21° North  Level Estimated
Fri 09:46:00 AM 27.3513 103.8979 21° North  Level Estimated
Fri 09:47:00 AM 27.4315 103.9332 21° North  Level Estimated
Fri 09:48:00 AM 27.5117 103.9685 21° North  Level Estimated
Fri 09:49:00 AM 27.5919 104.0039 21° North  Level Estimated
Fri 09:50:00 AM 27.6720 104.0394 21° North  Level Estimated
Fri 09:51:00 AM 27.7522 104.0749 21° North  Level Estimated
Fri 09:52:00 AM 27.8324 104.1105 21° North  Level Estimated
Fri 09:53:00 AM 27.9125 104.1461 21° North  Level Estimated
Fri 09:54:00 AM 27.9927 104.1818 21° North  Level Estimated
Fri 09:55:00 AM 28.0728 104.2175 21° North  Level Estimated
Fri 09:56:00 AM 28.1530 104.2533 21° North  Level Estimated
Fri 09:57:00 AM 28.2331 104.2891 22° Northeast  Level Estimated
Fri 09:58:00 AM 28.3132 104.3250 22° Northeast  Level Estimated
Fri 09:59:00 AM 28.3933 104.3609 22° Northeast  Level Estimated
Fri 10:00:00 AM 28.4734 104.3969 22° Northeast  Level Estimated
Fri 10:01:00 AM 28.5534 104.4330 22° Northeast  Level Estimated
Fri 10:02:00 AM 28.6335 104.4691 22° Northeast  Level Estimated
Fri 10:03:00 AM 28.7136 104.5052 22° Northeast  Level Estimated
Fri 10:04:00 AM 28.7936 104.5414 22° Northeast  Level Estimated
Fri 10:05:00 AM 28.8003 104.5444 22° Northeast  Level Estimated
Fri 10:06:00 AM 28.8003 104.5444 120° Southeast  Level Estimated
Fri 10:07:00 AM 28.8003 104.5444 120° Southeast  Level Estimated
Fri 10:08:00 AM 28.8003 104.5444 120° Southeast  Level Estimated
Fri 10:09:00 AM 28.8003 104.5444 120° Southeast  Level Estimated
Fri 10:10:00 AM 28.8003 104.5444 120° Southeast  Level Estimated
Fri 10:11:00 AM 28.8003 104.5444 120° Southeast  Level Estimated
Fri 10:12:00 AM 28.8003 104.5444 120° Southeast  Level Estimated
Fri 10:13:00 AM 28.8003 104.5444 120° Southeast  Level Estimated
Fri 10:14:00 AM 28.8003 104.5444 120° Southeast  Level Estimated
Fri 10:15:00 AM 28.8003 104.5444 120° Southeast  Level Estimated

Login

Don't have an account? Register now (free) for customized features, flight alerts, and more!